Ana Sayfa
METAR-TAF:

METAR-TAF

Havaalanları :

Blackstone, Virginia, Amerika Birleşik Devletleri

Enlem: 37-04-26N, Boylam: 077-57-09W, yükseklik: 134 m

Güncel hava durumu gözlemi

Rapor saat 15:35 UTC de 23 dakika önce yapıldı.
Rüzgar kuzeydoğudan 4 kt
Sıcaklık 7°C
Nem 76%
Basınç 1011 hPa
Görüş mesafesi: 16.1 km
1500 ft yükseklikte çok bulutlu

METAR: KBKT 181535Z AUTO 05004KT 10SM OVC015 07/03 A2985 RMK AO1 T00710025

Saat: 10:58 (15:58 UTC)


TAF: eksik

4.000'den fazla havaalanı için hava durumu gözlemleri ve tahminleri (METAR ve TAF raporları).

Kullanılabilir istasyonlar harita üzerinde sarı ve kırmızı noktalarla gösterilir.

İstasyonun adını görmek için fareyi noktanın üzerinde gezdirin.

Sonrasında hava gözlem ve tahminlerini görmek için tıklayın.

Haritayı değiştirmek için: yaklaştırmak için siyah artı işaretli yeşil düğmeye ve uzaklaştırmak için de eksi işaretli düğmeye hızla tıklayın; bitişik haritalar için yeşil okları kullanın.


METAR-TAF: